<?xml version='1.0' encoding='UTF-8'?>
<gpx xmlns="http://www.topografix.com/GPX/1/1" creator="www.balnam.be" version="1.1" xmlns:xsi="http://www.w3.org/2001/XMLSchema-instance" xsi:schemaLocation="http://www.topografix.com/GPX/1/1 http://www.topografix.com/GPX/1/1/gpx.xsd">
<trk>
<name>hecee70</name>
<cmt>v</cmt>
<desc>Ecaussinnes-d'Enghien Sentier n°70 Rue de la Dime</desc>
<link href="https://chemins.be/ecaussinnesdenghien/sentier/70"/><trkseg>
<trkpt lat="50.577167" lon="4.181820"><time>2026-05-02T22:51:51Z</time></trkpt>
<trkpt lat="50.577230" lon="4.181891"><time>2026-05-02T23:01:51Z</time></trkpt>
<trkpt lat="50.577473" lon="4.182440"><time>2026-05-02T23:11:51Z</time></trkpt>
<trkpt lat="50.577230" lon="4.181891"><time>2026-05-02T23:21:51Z</time></trkpt>
<trkpt lat="50.577753" lon="4.183089"><time>2026-05-02T23:31:51Z</time></trkpt>
<trkpt lat="50.577816" lon="4.183187"><time>2026-05-02T23:41:51Z</time></trkpt>
<trkpt lat="50.577879" lon="4.183243"><time>2026-05-02T23:51:51Z</time></trkpt>
<trkpt lat="50.577924" lon="4.183286"><time>2026-05-03T00:01:51Z</time></trkpt>
<trkpt lat="50.577969" lon="4.183314"><time>2026-05-03T00:11:51Z</time></trkpt>
<trkpt lat="50.578014" lon="4.183398"><time>2026-05-03T00:21:51Z</time></trkpt>
<trkpt lat="50.578105" lon="4.183610"><time>2026-05-03T00:31:51Z</time></trkpt>
<trkpt lat="50.578195" lon="4.183849"><time>2026-05-03T00:41:51Z</time></trkpt>
<trkpt lat="50.578357" lon="4.184244"><time>2026-05-03T00:51:51Z</time></trkpt>
<trkpt lat="50.578475" lon="4.184540"><time>2026-05-03T01:01:51Z</time></trkpt>
<trkpt lat="50.578673" lon="4.184977"><time>2026-05-03T01:11:51Z</time></trkpt>
<trkpt lat="50.578682" lon="4.184977"><time>2026-05-03T01:21:51Z</time></trkpt>
<trkpt lat="50.578944" lon="4.185569"><time>2026-05-03T01:31:51Z</time></trkpt>
<trkpt lat="50.578971" lon="4.185625"><time>2026-05-03T01:41:51Z</time></trkpt>
<trkpt lat="50.579007" lon="4.185696"><time>2026-05-03T01:51:51Z</time></trkpt>
<trkpt lat="50.579034" lon="4.185794"><time>2026-05-03T02:01:51Z</time></trkpt>
<trkpt lat="50.579070" lon="4.185921"><time>2026-05-03T02:11:51Z</time></trkpt>
<trkpt lat="50.579115" lon="4.186048"><time>2026-05-03T02:21:51Z</time></trkpt>
<trkpt lat="50.579161" lon="4.186189"><time>2026-05-03T02:31:51Z</time></trkpt>
<trkpt lat="50.579224" lon="4.186274"><time>2026-05-03T02:41:51Z</time></trkpt>
<trkpt lat="50.579251" lon="4.186330"><time>2026-05-03T02:51:51Z</time></trkpt>
<trkpt lat="50.579323" lon="4.186429"><time>2026-05-03T03:01:51Z</time></trkpt>
<trkpt lat="50.579422" lon="4.186569"><time>2026-05-03T03:11:51Z</time></trkpt>
<trkpt lat="50.579476" lon="4.186626"><time>2026-05-03T03:21:51Z</time></trkpt>
<trkpt lat="50.579575" lon="4.186724"><time>2026-05-03T03:31:51Z</time></trkpt>
<trkpt lat="50.579683" lon="4.186837"><time>2026-05-03T03:41:51Z</time></trkpt>
<trkpt lat="50.579863" lon="4.187034"><time>2026-05-03T03:51:51Z</time></trkpt>
<trkpt lat="50.580052" lon="4.187188"><time>2026-05-03T04:01:51Z</time></trkpt>
<trkpt lat="50.580133" lon="4.187244"><time>2026-05-03T04:11:51Z</time></trkpt>
<trkpt lat="50.580223" lon="4.187301"><time>2026-05-03T04:21:51Z</time></trkpt>
<trkpt lat="50.580340" lon="4.187371"><time>2026-05-03T04:31:51Z</time></trkpt>
<trkpt lat="50.580682" lon="4.187581"><time>2026-05-03T04:41:51Z</time></trkpt>
<trkpt lat="50.580871" lon="4.187693"><time>2026-05-03T04:51:51Z</time></trkpt>
<trkpt lat="50.580961" lon="4.187735"><time>2026-05-03T05:01:51Z</time></trkpt>
<trkpt lat="50.581150" lon="4.187848"><time>2026-05-03T05:11:51Z</time></trkpt>
<trkpt lat="50.581249" lon="4.187890"><time>2026-05-03T05:21:51Z</time></trkpt>
<trkpt lat="50.581357" lon="4.187918"><time>2026-05-03T05:31:51Z</time></trkpt>
<trkpt lat="50.581573" lon="4.187973"><time>2026-05-03T05:41:51Z</time></trkpt>
<trkpt lat="50.581726" lon="4.188015"><time>2026-05-03T05:51:51Z</time></trkpt>
<trkpt lat="50.581915" lon="4.188127"><time>2026-05-03T06:01:51Z</time></trkpt>
<trkpt lat="50.582158" lon="4.188310"><time>2026-05-03T06:11:51Z</time></trkpt>
<trkpt lat="50.582482" lon="4.188605"><time>2026-05-03T06:21:51Z</time></trkpt>
<trkpt lat="50.582644" lon="4.188746"><time>2026-05-03T06:31:51Z</time></trkpt>
<trkpt lat="50.582770" lon="4.188872"><time>2026-05-03T06:41:51Z</time></trkpt>
<trkpt lat="50.582869" lon="4.188943"><time>2026-05-03T06:51:51Z</time></trkpt>
</trkseg></trk>
<trk>
<name>hecee70</name>
<cmt>q</cmt>
<desc>Ecaussinnes-d'Enghien Sentier n°70 Rue de la Dime</desc>
<link href="https://chemins.be/ecaussinnesdenghien/sentier/70"/><trkseg>
<trkpt lat="50.582869" lon="4.188943"><time>2026-05-03T06:51:51Z</time></trkpt>
<trkpt lat="50.583220" lon="4.189534"><time>2026-05-03T07:01:51Z</time></trkpt>
<trkpt lat="50.583993" lon="4.189461"><time>2026-05-03T07:11:51Z</time></trkpt>
<trkpt lat="50.584841" lon="4.190702"><time>2026-05-03T07:21:51Z</time></trkpt>
<trkpt lat="50.585515" lon="4.191775"><time>2026-05-03T07:31:51Z</time></trkpt>
</trkseg>
</trk>
</gpx>